Terminal Aerodrome Forecast
Issued by NWS Cleveland, OH

Home | Current Version | Previous Version | Graphics & Text | Print | Product List | Glossary On
Versions: 1 2 3 4 5 6 7 8 9 10 11 12 13 14 15 16 17 18
000
FTUS41 KCLE 162300
TAFERI
TAF
KERI 162338Z 1700/1724 18010G20KT P6SM -SHRA OVC035
      TEMPO 1700/1703 5SM -SHRA BKN015
     FM170300 19012KT P6SM -SHRA OVC025
     FM170600 21010KT P6SM BKN008 OVC015
     FM171600 28006KT P6SM SCT008 OVC015
     FM172000 27008KT P6SM SCT015 BKN035=

USA.gov is the U.S. government's official web portal to all federal, state and local government web resources and services.